Time;durP1;ratioP1;P1;durP2;ratioP2;P2;SDS_P1;SDS_P2;PMS_P1;PMS_P2;Temp;Humidity;BMP_temperature;BMP_pressure;BME280_temperature;BME280_humidity;BME280_pressure;Samples;Min_cycle;Max_cycle;Signal;HPM_P1;HPM_P2
2023/08/20 00:00:39;;;;;;;45.47;22.33;;;;;;;;;;5069570;28;20113;-61
2023/08/20 00:03:13;;;;;;;35.33;20.17;;;;;;;;;;5069136;28;20048;-60
2023/08/20 00:05:40;;;;;;;34.83;20.03;;;;;;;;;;5054015;28;20193;-61
2023/08/20 00:08:06;;;;;;;37.73;21.27;;;;;;;;;;5068818;28;20056;-60
2023/08/20 00:10:32;;;;;;;34.37;20.47;;;;;;;;;;5069316;28;20056;-61
2023/08/20 00:12:58;;;;;;;19.57;12.87;;;;;;;;;;5069280;28;20074;-60
2023/08/20 00:15:27;;;;;;;25.27;12.17;;;;;;;;;;5069344;28;20555;-60
2023/08/20 00:17:53;;;;;;;33.63;19.60;;;;;;;;;;5067806;28;20693;-61
2023/08/20 00:20:19;;;;;;;26.73;16.70;;;;;;;;;;5049947;28;20049;-61
2023/08/20 00:22:46;;;;;;;39.03;22.70;;;;;;;;;;5050762;28;20114;-60
2023/08/20 00:25:13;;;;;;;20.40;13.73;;;;;;;;;;5049204;28;20396;-61
2023/08/20 00:27:39;;;;;;;25.00;14.13;;;;;;;;;;5048701;28;20052;-60
2023/08/20 00:30:06;;;;;;;32.50;14.67;;;;;;;;;;5050641;28;20045;-60
2023/08/20 00:32:32;;;;;;;26.73;14.97;;;;;;;;;;5047918;28;20041;-60
2023/08/20 00:34:58;;;;;;;36.50;20.83;;;;;;;;;;5049382;28;20063;-60
2023/08/20 00:37:24;;;;;;;21.67;13.97;;;;;;;;;;5049424;28;20044;-61
2023/08/20 00:39:50;;;;;;;33.13;19.53;;;;;;;;;;5067208;28;20152;-61
2023/08/20 00:42:16;;;;;;;32.23;19.43;;;;;;;;;;5068332;28;20062;-60
2023/08/20 00:44:44;;;;;;;35.57;17.93;;;;;;;;;;5068051;28;20521;-61
2023/08/20 00:47:10;;;;;;;28.77;17.77;;;;;;;;;;5068908;28;20482;-60
2023/08/20 00:49:37;;;;;;;27.60;17.17;;;;;;;;;;5068207;28;20040;-60
2023/08/20 00:52:04;;;;;;;31.63;17.93;;;;;;;;;;5068793;28;20494;-60
2023/08/20 00:54:32;;;;;;;28.73;16.53;;;;;;;;;;5068519;28;20045;-60
2023/08/20 00:56:59;;;;;;;29.47;17.57;;;;;;;;;;5068523;28;20048;-61
2023/08/20 00:59:26;;;;;;;35.30;18.90;;;;;;;;;;5068062;28;20052;-61
2023/08/20 01:01:52;;;;;;;35.87;17.23;;;;;;;;;;5068578;28;20543;-61
2023/08/20 01:04:18;;;;;;;38.53;19.37;;;;;;;;;;5068431;28;20131;-60
2023/08/20 01:06:52;;;;;;;30.87;19.13;;;;;;;;;;5068466;28;20044;-60
2023/08/20 01:09:28;;;;;;;35.00;18.50;;;;;;;;;;5067662;28;20063;-60
2023/08/20 01:11:56;;;;;;;28.10;16.27;;;;;;;;;;5063012;28;20063;-60
2023/08/20 01:14:22;;;;;;;27.23;16.67;;;;;;;;;;5048277;28;20037;-60
2023/08/20 01:16:49;;;;;;;31.03;19.10;;;;;;;;;;5047856;28;20052;-60
2023/08/20 01:19:17;;;;;;;37.57;20.40;;;;;;;;;;5048211;28;20415;-61
2023/08/20 01:21:52;;;;;;;19.77;12.80;;;;;;;;;;5048515;28;20411;-61
2023/08/20 01:24:21;;;;;;;23.07;14.43;;;;;;;;;;5047998;28;20049;-60
2023/08/20 01:26:59;;;;;;;25.60;16.93;;;;;;;;;;5048187;28;20036;-61
2023/08/20 01:29:26;;;;;;;35.80;19.87;;;;;;;;;;5048318;28;20400;-61
2023/08/20 01:31:53;;;;;;;23.73;16.40;;;;;;;;;;5048004;28;20056;-60
2023/08/20 01:34:19;;;;;;;26.97;17.80;;;;;;;;;;5047851;28;20110;-60
2023/08/20 01:36:45;;;;;;;25.17;14.30;;;;;;;;;;5047777;28;20123;-60
2023/08/20 01:39:11;;;;;;;23.20;12.97;;;;;;;;;;5048179;28;20060;-61
2023/08/20 01:41:37;;;;;;;23.50;17.40;;;;;;;;;;5062169;28;20093;-61
2023/08/20 01:44:03;;;;;;;38.37;20.67;;;;;;;;;;5048120;28;20391;-60
2023/08/20 01:46:29;;;;;;;37.57;22.70;;;;;;;;;;5048225;28;20124;-61
2023/08/20 01:48:55;;;;;;;33.13;19.33;;;;;;;;;;5048312;28;20124;-61
2023/08/20 01:51:21;;;;;;;35.67;19.70;;;;;;;;;;5047408;28;20052;-61
2023/08/20 01:53:47;;;;;;;24.93;13.87;;;;;;;;;;5048118;28;20129;-61
2023/08/20 01:56:14;;;;;;;35.10;19.57;;;;;;;;;;5047856;28;20037;-60
2023/08/20 01:58:40;;;;;;;28.27;18.53;;;;;;;;;;5047045;28;20128;-61
2023/08/20 02:01:06;;;;;;;27.83;18.03;;;;;;;;;;5054668;28;20044;-60
2023/08/20 02:03:32;;;;;;;31.23;17.13;;;;;;;;;;5067824;28;20056;-60
2023/08/20 02:05:58;;;;;;;30.97;20.47;;;;;;;;;;5066226;28;20041;-60
2023/08/20 02:08:24;;;;;;;26.00;16.20;;;;;;;;;;5067577;28;20057;-61
2023/08/20 02:10:50;;;;;;;29.03;16.30;;;;;;;;;;5068039;28;20048;-60
2023/08/20 02:13:16;;;;;;;30.07;18.63;;;;;;;;;;5067185;28;20071;-61
2023/08/20 02:15:42;;;;;;;36.13;19.67;;;;;;;;;;5068128;28;20045;-60
2023/08/20 02:18:08;;;;;;;33.90;20.50;;;;;;;;;;5066127;28;20036;-60
2023/08/20 02:20:35;;;;;;;33.17;19.13;;;;;;;;;;5067641;28;20472;-60
2023/08/20 02:23:01;;;;;;;27.07;19.33;;;;;;;;;;5067800;28;20139;-60
2023/08/20 02:25:27;;;;;;;38.33;22.97;;;;;;;;;;5067595;28;20127;-60
2023/08/20 02:27:53;;;;;;;43.63;25.03;;;;;;;;;;5068861;28;20491;-60
2023/08/20 02:30:19;;;;;;;37.97;21.57;;;;;;;;;;5071076;28;20044;-60
2023/08/20 02:32:45;;;;;;;41.83;22.50;;;;;;;;;;5071317;28;20087;-60
2023/08/20 02:35:12;;;;;;;33.50;19.20;;;;;;;;;;5070122;28;20060;-60
2023/08/20 02:37:41;;;;;;;38.83;23.63;;;;;;;;;;5071127;28;20098;-60
2023/08/20 02:40:08;;;;;;;26.00;17.93;;;;;;;;;;5070478;28;20081;-60
2023/08/20 02:42:34;;;;;;;27.77;14.93;;;;;;;;;;5070336;28;20178;-60
2023/08/20 02:45:00;;;;;;;40.13;21.40;;;;;;;;;;5070946;28;20086;-60
2023/08/20 02:47:26;;;;;;;33.60;21.07;;;;;;;;;;5071093;28;20043;-61
2023/08/20 02:49:52;;;;;;;37.47;22.57;;;;;;;;;;5070360;28;20044;-60
2023/08/20 02:52:18;;;;;;;30.27;21.47;;;;;;;;;;5070728;28;20044;-60
2023/08/20 02:54:44;;;;;;;28.30;19.73;;;;;;;;;;5070524;28;20040;-60
2023/08/20 02:57:10;;;;;;;34.60;21.40;;;;;;;;;;5070817;28;20072;-60
2023/08/20 02:59:36;;;;;;;33.20;22.87;;;;;;;;;;5070651;28;20056;-60
2023/08/20 03:02:03;;;;;;;33.50;22.60;;;;;;;;;;5067846;28;20487;-61
2023/08/20 03:04:29;;;;;;;38.67;20.93;;;;;;;;;;5050944;28;20056;-60
2023/08/20 03:06:55;;;;;;;42.40;21.33;;;;;;;;;;5050671;28;20041;-60
2023/08/20 03:09:21;;;;;;;29.60;19.93;;;;;;;;;;5050293;28;20554;-60
2023/08/20 03:11:47;;;;;;;33.17;21.10;;;;;;;;;;5049207;28;20060;-61
2023/08/20 03:14:13;;;;;;;35.20;21.90;;;;;;;;;;5049938;28;20503;-61
2023/08/20 03:16:39;;;;;;;45.40;23.57;;;;;;;;;;5050255;28;20047;-60
2023/08/20 03:19:05;;;;;;;39.17;23.67;;;;;;;;;;5050177;28;20051;-60
2023/08/20 03:21:31;;;;;;;33.50;22.60;;;;;;;;;;5049980;28;20044;-60
2023/08/20 03:23:57;;;;;;;36.57;23.33;;;;;;;;;;5050206;28;20045;-60
2023/08/20 03:26:23;;;;;;;37.03;22.60;;;;;;;;;;5050084;28;20451;-60
2023/08/20 03:28:49;;;;;;;31.87;20.03;;;;;;;;;;5050029;28;20045;-60
2023/08/20 03:31:15;;;;;;;40.43;22.57;;;;;;;;;;5050147;28;20045;-60
2023/08/20 03:33:41;;;;;;;40.77;23.20;;;;;;;;;;5049509;28;20044;-61
2023/08/20 03:36:07;;;;;;;44.10;23.23;;;;;;;;;;5050087;28;20049;-60
2023/08/20 03:38:33;;;;;;;44.97;23.57;;;;;;;;;;5049983;28;20049;-60
2023/08/20 03:40:59;;;;;;;34.57;18.20;;;;;;;;;;5050033;28;20496;-61
2023/08/20 03:43:25;;;;;;;43.37;26.30;;;;;;;;;;5050082;28;20323;-61
2023/08/20 03:45:51;;;;;;;44.37;26.73;;;;;;;;;;5048690;28;20041;-60
2023/08/20 03:48:17;;;;;;;43.93;22.77;;;;;;;;;;5049992;28;20045;-61
2023/08/20 03:50:44;;;;;;;33.70;23.33;;;;;;;;;;5049774;28;20084;-60
2023/08/20 03:53:10;;;;;;;42.17;26.37;;;;;;;;;;5049987;28;20048;-61
2023/08/20 03:55:36;;;;;;;39.43;24.93;;;;;;;;;;5049954;28;21426;-61
2023/08/20 03:58:02;;;;;;;39.60;26.60;;;;;;;;;;5049222;28;20036;-61
2023/08/20 04:00:28;;;;;;;33.10;23.83;;;;;;;;;;5049933;28;20049;-60
2023/08/20 04:02:54;;;;;;;37.67;22.90;;;;;;;;;;5064870;28;20106;-61
2023/08/20 04:05:20;;;;;;;44.53;28.43;;;;;;;;;;5069407;28;20135;-61
2023/08/20 04:07:46;;;;;;;28.03;17.63;;;;;;;;;;5069096;28;20498;-61
2023/08/20 04:10:12;;;;;;;24.37;15.90;;;;;;;;;;5069824;28;20048;-61
2023/08/20 04:12:38;;;;;;;27.00;16.93;;;;;;;;;;5069978;28;20201;-60
2023/08/20 04:15:04;;;;;;;48.83;25.50;;;;;;;;;;5069667;28;20084;-60
2023/08/20 04:17:30;;;;;;;40.60;26.40;;;;;;;;;;5069019;28;20037;-60
2023/08/20 04:19:56;;;;;;;64.53;32.23;;;;;;;;;;5067786;28;20041;-60
2023/08/20 04:22:22;;;;;;;39.23;24.43;;;;;;;;;;5069583;28;20090;-60
2023/08/20 04:24:48;;;;;;;42.37;24.73;;;;;;;;;;5068732;28;20106;-60
2023/08/20 04:27:14;;;;;;;56.80;30.93;;;;;;;;;;5069386;28;20053;-60
2023/08/20 04:29:40;;;;;;;38.27;25.93;;;;;;;;;;5068695;28;20823;-60
2023/08/20 04:32:06;;;;;;;47.30;27.47;;;;;;;;;;5068567;28;20574;-61
2023/08/20 04:34:33;;;;;;;45.00;26.33;;;;;;;;;;5060224;28;20129;-60
2023/08/20 04:36:59;;;;;;;48.70;27.23;;;;;;;;;;5049105;28;20446;-60
2023/08/20 04:39:25;;;;;;;29.10;19.03;;;;;;;;;;5049317;28;20150;-60
2023/08/20 04:41:51;;;;;;;42.80;25.70;;;;;;;;;;5066837;28;20479;-60
2023/08/20 04:44:17;;;;;;;52.80;30.20;;;;;;;;;;5068303;28;20052;-61
2023/08/20 04:46:43;;;;;;;51.83;30.67;;;;;;;;;;5068773;28;20045;-61
2023/08/20 04:49:09;;;;;;;52.60;31.17;;;;;;;;;;5067617;28;20139;-60
2023/08/20 04:51:35;;;;;;;56.90;32.40;;;;;;;;;;5068205;28;20588;-60
2023/08/20 04:54:01;;;;;;;54.93;32.00;;;;;;;;;;5067949;28;20053;-60
2023/08/20 04:56:27;;;;;;;31.17;23.03;;;;;;;;;;5068496;28;20487;-61
2023/08/20 04:58:53;;;;;;;42.70;26.17;;;;;;;;;;5068406;28;20147;-60
2023/08/20 05:01:19;;;;;;;39.73;24.73;;;;;;;;;;5068632;28;20037;-60
2023/08/20 05:03:45;;;;;;;31.80;20.90;;;;;;;;;;5067690;28;20047;-61
2023/08/20 05:06:11;;;;;;;55.87;32.90;;;;;;;;;;5054711;28;20045;-61
2023/08/20 05:08:36;;;;;;;42.57;26.60;;;;;;;;;;5048500;28;20148;-61
2023/08/20 05:11:03;;;;;;;47.83;31.90;;;;;;;;;;5048952;28;20111;-61
2023/08/20 05:13:29;;;;;;;41.10;27.00;;;;;;;;;;5048080;28;20056;-60
2023/08/20 05:15:55;;;;;;;46.20;28.80;;;;;;;;;;5048392;28;20037;-61
2023/08/20 05:18:20;;;;;;;46.37;27.53;;;;;;;;;;5048198;28;20128;-61
2023/08/20 05:20:46;;;;;;;40.83;26.27;;;;;;;;;;5062619;28;20071;-61
2023/08/20 05:23:12;;;;;;;42.30;25.30;;;;;;;;;;5048630;28;20040;-61
2023/08/20 05:25:39;;;;;;;42.80;27.30;;;;;;;;;;5060813;28;20094;-60
2023/08/20 05:28:05;;;;;;;49.03;29.83;;;;;;;;;;5065540;28;20051;-60
2023/08/20 05:30:31;;;;;;;41.50;26.23;;;;;;;;;;5047634;28;20548;-60
2023/08/20 05:32:57;;;;;;;42.57;26.47;;;;;;;;;;5066605;28;20048;-61
2023/08/20 05:35:23;;;;;;;41.93;27.00;;;;;;;;;;5059944;28;20041;-61
2023/08/20 05:37:49;;;;;;;48.43;29.17;;;;;;;;;;5047730;28;20590;-60
2023/08/20 05:40:15;;;;;;;37.00;24.37;;;;;;;;;;5047698;28;20099;-61
2023/08/20 05:42:41;;;;;;;38.67;24.90;;;;;;;;;;5048126;28;20368;-61
2023/08/20 05:45:07;;;;;;;33.67;23.13;;;;;;;;;;5047903;28;20135;-60
2023/08/20 05:47:33;;;;;;;31.20;23.00;;;;;;;;;;5047423;28;20044;-60
2023/08/20 05:49:59;;;;;;;44.83;27.40;;;;;;;;;;5048307;28;20514;-61
2023/08/20 05:52:25;;;;;;;47.07;25.93;;;;;;;;;;5047684;28;20045;-61
2023/08/20 05:54:51;;;;;;;28.80;23.27;;;;;;;;;;5047877;28;20049;-61
2023/08/20 05:57:17;;;;;;;32.67;21.63;;;;;;;;;;5047162;28;20491;-60
2023/08/20 05:59:43;;;;;;;33.67;24.10;;;;;;;;;;5048993;28;20049;-60
2023/08/20 06:02:09;;;;;;;39.47;25.07;;;;;;;;;;5063150;28;20577;-60
2023/08/20 06:04:35;;;;;;;35.17;20.10;;;;;;;;;;5065109;28;20475;-61
2023/08/20 06:07:01;;;;;;;37.83;19.83;;;;;;;;;;5066514;28;20040;-60
2023/08/20 06:09:27;;;;;;;32.60;21.27;;;;;;;;;;5071803;28;20055;-60
2023/08/20 06:11:53;;;;;;;26.83;17.67;;;;;;;;;;5071510;28;20048;-61
2023/08/20 06:14:19;;;;;;;28.53;20.63;;;;;;;;;;5072065;28;20359;-60
2023/08/20 06:16:45;;;;;;;32.03;18.87;;;;;;;;;;5071079;28;20048;-61
2023/08/20 06:19:11;;;;;;;22.17;16.83;;;;;;;;;;5069538;28;20045;-60
2023/08/20 06:21:37;;;;;;;24.00;16.13;;;;;;;;;;5051373;28;20040;-61
2023/08/20 06:24:03;;;;;;;28.20;16.67;;;;;;;;;;5051747;28;20100;-61
2023/08/20 06:26:29;;;;;;;25.40;15.37;;;;;;;;;;5050920;28;20490;-60
2023/08/20 06:28:55;;;;;;;26.47;15.13;;;;;;;;;;5051357;28;20045;-61
2023/08/20 06:31:21;;;;;;;26.90;16.03;;;;;;;;;;5065174;28;20040;-60
2023/08/20 06:33:48;;;;;;;18.63;13.13;;;;;;;;;;5070320;28;20127;-61
2023/08/20 06:36:13;;;;;;;25.93;14.07;;;;;;;;;;5071179;28;20041;-61
2023/08/20 06:38:39;;;;;;;24.47;13.50;;;;;;;;;;5070546;28;20406;-61
2023/08/20 06:41:06;;;;;;;29.47;14.47;;;;;;;;;;5071154;28;20040;-61
2023/08/20 06:43:32;;;;;;;22.53;13.73;;;;;;;;;;5065965;28;20512;-60
2023/08/20 06:45:58;;;;;;;24.73;14.47;;;;;;;;;;5071060;28;20037;-60
2023/08/20 06:48:24;;;;;;;24.23;14.87;;;;;;;;;;5070672;28;20494;-61
2023/08/20 06:50:51;;;;;;;23.07;13.40;;;;;;;;;;5070687;28;20044;-61
2023/08/20 06:53:16;;;;;;;22.77;12.80;;;;;;;;;;5067786;28;20052;-61
2023/08/20 06:55:42;;;;;;;23.50;10.70;;;;;;;;;;5070948;28;20457;-60
2023/08/20 06:58:08;;;;;;;21.97;13.70;;;;;;;;;;5070550;28;20040;-61
2023/08/20 07:00:34;;;;;;;26.17;11.87;;;;;;;;;;5070561;28;20380;-60
2023/08/20 07:03:00;;;;;;;16.80;11.43;;;;;;;;;;5070788;28;20052;-60
2023/08/20 07:05:26;;;;;;;23.40;10.67;;;;;;;;;;5070236;28;20044;-60
2023/08/20 07:07:52;;;;;;;20.33;9.73;;;;;;;;;;5070508;28;20060;-60
2023/08/20 07:10:18;;;;;;;14.47;8.53;;;;;;;;;;5064807;28;20064;-60
2023/08/20 07:12:44;;;;;;;18.13;9.83;;;;;;;;;;5058875;28;20063;-60
2023/08/20 07:15:11;;;;;;;20.57;9.93;;;;;;;;;;5057033;28;20732;-61
2023/08/20 07:17:38;;;;;;;20.60;9.63;;;;;;;;;;5066856;28;20041;-61
2023/08/20 07:20:04;;;;;;;21.33;10.10;;;;;;;;;;5068844;28;20418;-63
2023/08/20 07:22:30;;;;;;;21.47;9.23;;;;;;;;;;5070167;28;20059;-62
2023/08/20 07:24:56;;;;;;;21.37;9.03;;;;;;;;;;5060619;28;20048;-62
2023/08/20 07:27:22;;;;;;;19.93;8.87;;;;;;;;;;5053433;28;20491;-62
2023/08/20 07:29:48;;;;;;;23.33;9.00;;;;;;;;;;5065889;28;20067;-62
2023/08/20 07:32:14;;;;;;;24.20;9.83;;;;;;;;;;5066168;28;20127;-62
2023/08/20 07:34:40;;;;;;;17.47;8.10;;;;;;;;;;5069598;28;20094;-62
2023/08/20 07:37:06;;;;;;;17.47;7.97;;;;;;;;;;5052630;28;20051;-62
2023/08/20 07:39:32;;;;;;;19.37;8.67;;;;;;;;;;5057632;28;20060;-61
2023/08/20 07:41:58;;;;;;;21.60;8.77;;;;;;;;;;5068390;28;20041;-62
2023/08/20 07:44:24;;;;;;;16.37;8.07;;;;;;;;;;5068591;28;20490;-62
2023/08/20 07:46:50;;;;;;;19.23;7.73;;;;;;;;;;5068914;28;20049;-62
2023/08/20 07:49:16;;;;;;;19.43;7.90;;;;;;;;;;5069746;28;20040;-62
2023/08/20 07:51:42;;;;;;;16.00;8.00;;;;;;;;;;5069678;28;20148;-62
2023/08/20 07:54:08;;;;;;;17.07;7.53;;;;;;;;;;5067705;28;20098;-62
2023/08/20 07:56:34;;;;;;;17.40;7.30;;;;;;;;;;5069569;28;20506;-62
2023/08/20 07:59:00;;;;;;;17.00;6.60;;;;;;;;;;5069358;28;20041;-62
2023/08/20 08:01:26;;;;;;;15.27;6.50;;;;;;;;;;5069454;28;20047;-62
2023/08/20 08:03:52;;;;;;;15.63;6.30;;;;;;;;;;5068865;28;20048;-62
2023/08/20 08:06:18;;;;;;;14.57;5.30;;;;;;;;;;5069228;28;20048;-62
2023/08/20 08:08:44;;;;;;;17.27;5.90;;;;;;;;;;5068429;28;20139;-61
2023/08/20 08:11:10;;;;;;;13.00;4.60;;;;;;;;;;5068327;28;20044;-62
2023/08/20 08:13:36;;;;;;;13.33;4.73;;;;;;;;;;5069279;28;20072;-62
2023/08/20 08:16:02;;;;;;;15.17;4.53;;;;;;;;;;5069076;28;20099;-62
2023/08/20 08:18:28;;;;;;;10.40;2.73;;;;;;;;;;5068805;28;20146;-62
2023/08/20 08:20:54;;;;;;;10.90;3.87;;;;;;;;;;5068837;28;20135;-62
2023/08/20 08:23:20;;;;;;;12.13;4.43;;;;;;;;;;5068964;28;20055;-62
2023/08/20 08:25:46;;;;;;;11.00;3.27;;;;;;;;;;5067343;28;20502;-62
2023/08/20 08:28:12;;;;;;;9.23;3.13;;;;;;;;;;5068853;28;20048;-62
2023/08/20 08:30:39;;;;;;;10.90;2.73;;;;;;;;;;5068877;28;20055;-62
2023/08/20 08:33:05;;;;;;;10.90;2.87;;;;;;;;;;5068810;28;20048;-62
2023/08/20 08:35:31;;;;;;;10.20;3.03;;;;;;;;;;5068731;28;20065;-62
2023/08/20 08:37:57;;;;;;;12.47;3.50;;;;;;;;;;5068212;28;20538;-62
2023/08/20 08:40:24;;;;;;;9.97;3.10;;;;;;;;;;5068502;28;20047;-62
2023/08/20 08:42:50;;;;;;;14.37;3.10;;;;;;;;;;5068513;28;20052;-62
2023/08/20 08:45:19;;;;;;;10.67;2.97;;;;;;;;;;5068636;28;20498;-62
2023/08/20 08:47:45;;;;;;;11.27;3.70;;;;;;;;;;5066628;28;20048;-62
2023/08/20 08:50:11;;;;;;;14.37;3.70;;;;;;;;;;5068018;28;20047;-62
2023/08/20 08:52:39;;;;;;;11.10;2.50;;;;;;;;;;5065856;28;20048;-62
2023/08/20 08:55:08;;;;;;;10.10;2.60;;;;;;;;;;5057505;28;20047;-62
2023/08/20 08:57:34;;;;;;;8.90;2.60;;;;;;;;;;5068680;28;20474;-62
2023/08/20 09:00:00;;;;;;;11.95;2.88;;;;;;;;;;5055374;28;20048;-62
2023/08/20 09:02:26;;;;;;;9.90;2.60;;;;;;;;;;5048717;28;20053;-62
2023/08/20 09:04:52;;;;;;;7.88;2.53;;;;;;;;;;5061736;28;20411;-62
2023/08/20 09:07:19;;;;;;;12.57;3.50;;;;;;;;;;5048506;28;20423;-62
2023/08/20 09:09:45;;;;;;;7.80;1.88;;;;;;;;;;5047266;28;20631;-62
2023/08/20 09:12:16;;;;;;;8.00;2.08;;;;;;;;;;5048387;28;20107;-62
2023/08/20 09:14:46;;;;;;;8.98;2.42;;;;;;;;;;5047675;28;20128;-59
2023/08/20 09:17:12;;;;;;;7.50;2.45;;;;;;;;;;5049975;28;20047;-59
2023/08/20 09:19:39;;;;;;;7.60;2.30;;;;;;;;;;5061373;28;20056;-60
2023/08/20 09:22:05;;;;;;;8.35;2.00;;;;;;;;;;5066419;28;20044;-60
2023/08/20 09:24:35;;;;;;;8.38;2.20;;;;;;;;;;5068161;28;20047;-60
2023/08/20 09:27:03;;;;;;;11.07;2.05;;;;;;;;;;5067209;28;20052;-60
2023/08/20 09:29:32;;;;;;;8.15;2.15;;;;;;;;;;5064490;28;20048;-60
2023/08/20 09:32:02;;;;;;;12.38;2.25;;;;;;;;;;5066009;28;20619;-60
2023/08/20 09:34:39;;;;;;;6.72;1.77;;;;;;;;;;5067876;28;20406;-60
2023/08/20 09:37:08;;;;;;;6.00;1.63;;;;;;;;;;5066442;28;20127;-60
2023/08/20 09:39:34;;;;;;;8.85;1.88;;;;;;;;;;5056380;28;20047;-60
2023/08/20 09:42:00;;;;;;;9.23;2.60;;;;;;;;;;5055450;28;20336;-60
2023/08/20 09:44:29;;;;;;;8.13;1.75;;;;;;;;;;5052032;28;20044;-60
2023/08/20 09:46:55;;;;;;;8.02;2.38;;;;;;;;;;5067666;28;20041;-60
2023/08/20 09:49:22;;;;;;;10.68;2.13;;;;;;;;;;5065131;28;20044;-60
2023/08/20 09:51:50;;;;;;;8.18;2.08;;;;;;;;;;5064877;28;20045;-60
2023/08/20 09:54:22;;;;;;;11.13;2.22;;;;;;;;;;5066721;28;20041;-60
2023/08/20 09:56:52;;;;;;;7.40;1.70;;;;;;;;;;5067028;28;20096;-60
2023/08/20 09:59:18;;;;;;;11.10;2.60;;;;;;;;;;5068043;28;20044;-60
2023/08/20 10:01:44;;;;;;;7.10;2.58;;;;;;;;;;5065042;28;20064;-60
2023/08/20 10:04:10;;;;;;;6.43;1.60;;;;;;;;;;5066140;28;20331;-60
2023/08/20 10:06:37;;;;;;;8.45;2.45;;;;;;;;;;5066352;28;20477;-60
2023/08/20 10:09:03;;;;;;;8.10;1.80;;;;;;;;;;5064280;28;20048;-60
2023/08/20 10:11:29;;;;;;;7.70;2.17;;;;;;;;;;5067568;28;20523;-60
2023/08/20 10:13:55;;;;;;;9.80;2.95;;;;;;;;;;5067525;28;20040;-60
2023/08/20 10:16:23;;;;;;;6.53;2.08;;;;;;;;;;5067762;28;20052;-60
2023/08/20 10:18:49;;;;;;;8.20;2.50;;;;;;;;;;5067109;28;20090;-60
2023/08/20 10:21:15;;;;;;;8.68;3.03;;;;;;;;;;5067583;28;20041;-60
2023/08/20 10:23:42;;;;;;;8.77;2.10;;;;;;;;;;5067068;28;20041;-60
2023/08/20 10:26:08;;;;;;;8.18;2.67;;;;;;;;;;5068088;28;20129;-60
2023/08/20 10:28:35;;;;;;;9.30;2.28;;;;;;;;;;5066447;28;20094;-61
2023/08/20 10:31:13;;;;;;;6.22;2.40;;;;;;;;;;5065683;28;20399;-60
2023/08/20 10:33:49;;;;;;;8.60;2.13;;;;;;;;;;5067454;28;20418;-61
2023/08/20 10:36:25;;;;;;;9.93;2.50;;;;;;;;;;5066105;28;20556;-60
2023/08/20 10:38:55;;;;;;;8.50;2.35;;;;;;;;;;5061797;28;20060;-61
2023/08/20 10:41:31;;;;;;;6.05;1.67;;;;;;;;;;5060932;28;20052;-61
2023/08/20 10:44:00;;;;;;;8.65;1.98;;;;;;;;;;5060484;28;20056;-61
2023/08/20 10:46:30;;;;;;;6.75;1.95;;;;;;;;;;5053520;28;20098;-61
2023/08/20 10:48:59;;;;;;;7.30;1.67;;;;;;;;;;5048991;28;20072;-61
2023/08/20 10:51:27;;;;;;;5.85;2.15;;;;;;;;;;5060855;28;20044;-61
2023/08/20 10:54:03;;;;;;;8.75;1.85;;;;;;;;;;5069020;28;20515;-61
2023/08/20 10:56:41;;;;;;;6.82;2.30;;;;;;;;;;5069759;28;20057;-61
2023/08/20 10:59:15;;;;;;;5.85;1.58;;;;;;;;;;5067367;28;20040;-60
2023/08/20 11:01:43;;;;;;;7.05;1.48;;;;;;;;;;5068564;28;20135;-61
2023/08/20 11:04:09;;;;;;;3.70;1.35;;;;;;;;;;5069073;28;20040;-61
2023/08/20 11:06:35;;;;;;;4.60;1.50;;;;;;;;;;5067833;28;20048;-61
2023/08/20 11:09:05;;;;;;;8.20;2.25;;;;;;;;;;5066466;28;20061;-61
2023/08/20 11:11:31;;;;;;;5.93;1.63;;;;;;;;;;5069824;28;20457;-61
2023/08/20 11:13:58;;;;;;;8.32;1.60;;;;;;;;;;5057798;28;20135;-61
2023/08/20 11:16:24;;;;;;;4.70;1.35;;;;;;;;;;5050630;28;20048;-61
2023/08/20 11:18:52;;;;;;;7.90;1.60;;;;;;;;;;5049804;28;20049;-61
2023/08/20 11:21:18;;;;;;;5.85;1.55;;;;;;;;;;5050666;28;20134;-62
2023/08/20 11:23:44;;;;;;;5.78;1.90;;;;;;;;;;5050057;28;20091;-61
2023/08/20 11:26:10;;;;;;;5.90;1.25;;;;;;;;;;5054910;28;20072;-61
2023/08/20 11:28:36;;;;;;;6.18;1.33;;;;;;;;;;5070132;28;20075;-61
2023/08/20 11:31:02;;;;;;;7.07;1.42;;;;;;;;;;5065809;28;20050;-61
2023/08/20 11:33:29;;;;;;;4.45;1.20;;;;;;;;;;5066712;28;20048;-62
2023/08/20 11:35:55;;;;;;;8.07;1.85;;;;;;;;;;5069044;28;20048;-61
2023/08/20 11:38:25;;;;;;;8.90;1.67;;;;;;;;;;5069711;28;20048;-61
2023/08/20 11:40:51;;;;;;;6.55;1.50;;;;;;;;;;5068198;28;20052;-61
2023/08/20 11:43:17;;;;;;;4.38;1.27;;;;;;;;;;5069953;28;20047;-61
2023/08/20 11:45:47;;;;;;;8.43;1.63;;;;;;;;;;5069913;28;20062;-61
2023/08/20 11:48:13;;;;;;;5.38;1.80;;;;;;;;;;5069702;28;20063;-62
2023/08/20 11:50:40;;;;;;;7.05;1.92;;;;;;;;;;5069371;28;20418;-61
2023/08/20 11:53:06;;;;;;;7.05;1.60;;;;;;;;;;5069591;28;20075;-61
2023/08/20 11:55:32;;;;;;;6.20;1.70;;;;;;;;;;5070040;28;20414;-61
2023/08/20 11:57:58;;;;;;;5.68;1.23;;;;;;;;;;5068961;28;20048;-61
2023/08/20 12:00:29;;;;;;;7.90;2.00;;;;;;;;;;5069591;28;20090;-61
2023/08/20 12:02:55;;;;;;;5.88;1.63;;;;;;;;;;5069390;28;20044;-62
2023/08/20 12:05:22;;;;;;;4.47;1.50;;;;;;;;;;5069798;28;20051;-61
2023/08/20 12:07:56;;;;;;;6.43;1.65;;;;;;;;;;5065706;28;20056;-61
2023/08/20 12:10:22;;;;;;;5.90;1.67;;;;;;;;;;5068428;28;20048;-61
2023/08/20 12:12:52;;;;;;;6.00;1.58;;;;;;;;;;5068691;28;20500;-61
2023/08/20 12:15:21;;;;;;;4.88;1.40;;;;;;;;;;5069001;28;20570;-61
2023/08/20 12:18:00;;;;;;;6.95;1.52;;;;;;;;;;5069197;28;20079;-61
2023/08/20 12:20:29;;;;;;;7.30;1.30;;;;;;;;;;5068875;28;20040;-61
2023/08/20 12:22:57;;;;;;;6.00;1.58;;;;;;;;;;5068455;28;20051;-61
2023/08/20 12:25:23;;;;;;;5.78;1.30;;;;;;;;;;5069214;28;20040;-61
2023/08/20 12:27:48;;;;;;;4.93;1.75;;;;;;;;;;5068774;28;20052;-61
2023/08/20 12:30:15;;;;;;;5.68;1.15;;;;;;;;;;5053811;28;20091;-61
2023/08/20 12:32:41;;;;;;;7.40;1.77;;;;;;;;;;5061846;28;20045;-61
2023/08/20 12:35:07;;;;;;;5.43;1.60;;;;;;;;;;5049108;28;20044;-61
2023/08/20 12:37:33;;;;;;;4.45;1.33;;;;;;;;;;5047789;28;20545;-61
2023/08/20 12:39:59;;;;;;;6.88;1.75;;;;;;;;;;5061698;28;20048;-62
2023/08/20 12:42:25;;;;;;;4.45;1.08;;;;;;;;;;5068700;28;20102;-62
2023/08/20 12:44:51;;;;;;;3.92;1.50;;;;;;;;;;5066670;28;20461;-61
2023/08/20 12:47:17;;;;;;;4.65;1.48;;;;;;;;;;5066514;28;20067;-62
2023/08/20 12:49:43;;;;;;;4.97;1.63;;;;;;;;;;5061360;28;20079;-61
2023/08/20 12:52:09;;;;;;;5.03;1.50;;;;;;;;;;5048807;28;20102;-62
2023/08/20 12:54:36;;;;;;;4.88;1.05;;;;;;;;;;5058247;28;20476;-61
2023/08/20 12:57:02;;;;;;;4.80;1.75;;;;;;;;;;5052917;28;20411;-62
2023/08/20 12:59:28;;;;;;;5.68;1.45;;;;;;;;;;5063698;28;20123;-61
2023/08/20 13:01:54;;;;;;;4.85;1.55;;;;;;;;;;5053462;28;20505;-62
2023/08/20 13:04:20;;;;;;;5.07;1.27;;;;;;;;;;5048066;28;20040;-63
2023/08/20 13:06:47;;;;;;;8.25;1.60;;;;;;;;;;5048808;28;20094;-62
2023/08/20 13:09:15;;;;;;;3.85;1.15;;;;;;;;;;5047765;28;20057;-62
2023/08/20 13:11:42;;;;;;;5.55;1.27;;;;;;;;;;5047801;28;20053;-62
2023/08/20 13:14:08;;;;;;;4.70;1.30;;;;;;;;;;5052030;28;20457;-62
2023/08/20 13:16:35;;;;;;;3.25;1.10;;;;;;;;;;5057400;28;20156;-61
2023/08/20 13:19:02;;;;;;;4.93;1.50;;;;;;;;;;5063213;28;20064;-62
2023/08/20 13:21:28;;;;;;;4.38;1.50;;;;;;;;;;5048097;28;20617;-62
2023/08/20 13:23:54;;;;;;;5.07;1.42;;;;;;;;;;5059014;28;20129;-62
2023/08/20 13:26:22;;;;;;;5.65;1.50;;;;;;;;;;5068608;28;20111;-62
2023/08/20 13:28:48;;;;;;;4.25;1.30;;;;;;;;;;5050935;28;20051;-62
2023/08/20 13:31:14;;;;;;;5.35;1.35;;;;;;;;;;5048307;28;20188;-62
2023/08/20 13:33:40;;;;;;;5.38;1.58;;;;;;;;;;5048365;28;20053;-62
2023/08/20 13:36:07;;;;;;;3.50;0.73;;;;;;;;;;5048476;28;20045;-62
2023/08/20 13:38:34;;;;;;;3.38;1.17;;;;;;;;;;5054633;28;20102;-62
2023/08/20 13:41:00;;;;;;;5.25;1.10;;;;;;;;;;5058305;28;20057;-62
2023/08/20 13:43:26;;;;;;;4.30;1.20;;;;;;;;;;5067274;28;20044;-62
2023/08/20 13:45:52;;;;;;;3.47;1.02;;;;;;;;;;5065396;28;20067;-62
2023/08/20 13:48:18;;;;;;;2.67;0.90;;;;;;;;;;5065584;28;20052;-62
2023/08/20 13:50:44;;;;;;;4.95;1.10;;;;;;;;;;5053886;28;20036;-62
2023/08/20 13:53:10;;;;;;;3.53;1.33;;;;;;;;;;5067406;28;20066;-61
2023/08/20 13:55:36;;;;;;;3.33;1.02;;;;;;;;;;5055345;28;20404;-62
2023/08/20 13:58:02;;;;;;;3.78;1.92;;;;;;;;;;5048035;28;20120;-62
2023/08/20 14:00:28;;;;;;;3.75;0.80;;;;;;;;;;5047809;28;20087;-62
2023/08/20 14:02:54;;;;;;;3.42;0.80;;;;;;;;;;5047579;28;20145;-62
2023/08/20 14:05:20;;;;;;;1.85;0.50;;;;;;;;;;5066160;28;20499;-63
2023/08/20 14:07:46;;;;;;;3.03;0.93;;;;;;;;;;5055630;28;20141;-62
2023/08/20 14:10:12;;;;;;;3.30;1.00;;;;;;;;;;5068236;28;20448;-62
2023/08/20 14:12:38;;;;;;;3.42;1.08;;;;;;;;;;5067329;28;20053;-62
2023/08/20 14:15:04;;;;;;;4.85;0.90;;;;;;;;;;5052590;28;20049;-62
2023/08/20 14:17:30;;;;;;;3.03;0.80;;;;;;;;;;5061323;28;20127;-62
2023/08/20 14:19:56;;;;;;;4.75;0.95;;;;;;;;;;5068236;28;20080;-62
2023/08/20 14:22:22;;;;;;;3.50;0.90;;;;;;;;;;5067588;28;20048;-62
2023/08/20 14:24:48;;;;;;;2.03;0.80;;;;;;;;;;5068063;28;20132;-62